Time;durP1;ratioP1;P1;durP2;ratioP2;P2;SDS_P1;SDS_P2;PMS_P1;PMS_P2;Temp;Humidity;BMP_temperature;BMP_pressure;BME280_temperature;BME280_humidity;BME280_pressure;Samples;Min_cycle;Max_cycle;Signal;HPM_P1;HPM_P2
2022/04/27 00:01:02;;;;;;;6.28;5.75;;;8.10;99.90;;;;;;4193227;28;20048;-89
2022/04/27 00:03:06;;;;;;;5.53;5.13;;;8.10;99.90;;;;;;4176769;28;20049;-89
2022/04/27 00:05:10;;;;;;;4.18;3.97;;;8.10;99.90;;;;;;4161763;28;20041;-89
2022/04/27 00:07:12;;;;;;;4.72;4.53;;;8.00;99.90;;;;;;4162923;28;20574;-89
2022/04/27 00:09:14;;;;;;;5.90;5.35;;;8.00;99.90;;;;;;4158676;28;20041;-89
2022/04/27 00:11:17;;;;;;;5.22;4.70;;;7.90;99.90;;;;;;4176523;28;20041;-89
2022/04/27 00:13:20;;;;;;;5.32;5.13;;;7.80;99.90;;;;;;4175271;28;20079;-89
2022/04/27 00:15:25;;;;;;;7.18;5.18;;;8.00;99.90;;;;;;4178064;28;20037;-89
2022/04/27 00:17:28;;;;;;;4.75;4.63;;;7.90;99.90;;;;;;4177663;28;20516;-89
2022/04/27 00:19:30;;;;;;;4.88;4.57;;;7.90;99.90;;;;;;4179843;28;20057;-89
2022/04/27 00:21:32;;;;;;;4.50;4.35;;;7.90;99.90;;;;;;4163717;28;20037;-89
2022/04/27 00:23:35;;;;;;;5.03;4.82;;;7.90;99.90;;;;;;4162578;28;20053;-89
2022/04/27 00:25:37;;;;;;;3.83;3.63;;;7.90;99.90;;;;;;4179914;28;20041;-89
2022/04/27 00:27:40;;;;;;;9.25;4.63;;;7.90;99.90;;;;;;4181370;28;20542;-89
2022/04/27 00:29:42;;;;;;;5.60;5.00;;;7.90;99.90;;;;;;4178840;28;20571;-89
2022/04/27 00:31:45;;;;;;;4.60;4.38;;;7.80;99.90;;;;;;4171926;28;20536;-89
2022/04/27 00:33:47;;;;;;;4.65;4.35;;;7.80;99.90;;;;;;4164538;28;20057;-89
2022/04/27 00:35:51;;;;;;;4.88;4.72;;;7.80;99.90;;;;;;4182826;28;20045;-89
2022/04/27 00:38:19;;;;;;;4.70;4.50;;;7.90;99.90;;;;;;4182040;28;20063;-89
2022/04/27 00:40:22;;;;;;;5.20;4.82;;;7.90;99.90;;;;;;4096445;29;20055;-89
2022/04/27 00:42:24;;;;;;;5.65;5.22;;;7.90;99.90;;;;;;4123421;28;20113;-89
2022/04/27 00:44:27;;;;;;;3.72;3.47;;;7.80;99.90;;;;;;4102866;28;20138;-89
2022/04/27 00:46:29;;;;;;;4.07;3.70;;;7.60;99.90;;;;;;4114621;28;20043;-89
2022/04/27 00:48:31;;;;;;;;;;;7.60;99.90;;;;;;4099128;29;20039;-89
2022/04/27 00:50:33;;;;;;;4.13;3.97;;;7.60;99.90;;;;;;4098548;29;20037;-89
2022/04/27 00:52:37;;;;;;;4.43;4.25;;;7.50;99.90;;;;;;4097481;29;20472;-89
2022/04/27 00:54:44;;;;;;;5.57;5.35;;;7.50;99.90;;;;;;4129502;28;20783;-89
2022/04/27 00:56:49;;;;;;;6.22;5.75;;;7.50;99.90;;;;;;4112073;28;20077;-89
2022/04/27 00:58:52;;;;;;;4.93;4.72;;;7.40;99.90;;;;;;4112974;28;20049;-89
2022/04/27 01:00:56;;;;;;;6.43;6.10;;;7.30;99.90;;;;;;4129611;28;20038;-86
2022/04/27 01:02:58;;;;;;;6.15;5.88;;;7.20;99.90;;;;;;4113345;28;20061;-86
2022/04/27 01:05:00;;;;;;;9.73;6.63;;;7.20;99.90;;;;;;4097206;29;20051;-86
2022/04/27 01:07:04;;;;;;;5.30;4.97;;;7.20;99.90;;;;;;4097058;28;20043;-86
2022/04/27 01:09:07;;;;;;;6.15;5.32;;;7.10;99.90;;;;;;4092870;29;20129;-87
2022/04/27 01:11:11;;;;;;;5.88;5.25;;;7.10;99.90;;;;;;4114316;28;20101;-86
2022/04/27 01:13:14;;;;;;;6.07;5.68;;;7.10;99.90;;;;;;4097346;28;20054;-86
2022/04/27 01:15:33;;;;;;;4.95;4.75;;;7.00;99.90;;;;;;4122948;28;20074;-86
2022/04/27 01:17:37;;;;;;;6.00;5.57;;;7.00;99.90;;;;;;4151925;28;20048;-86
2022/04/27 01:19:40;;;;;;;5.57;5.10;;;7.10;99.90;;;;;;4150460;28;20037;-86
2022/04/27 01:21:42;;;;;;;4.82;4.57;;;6.90;99.90;;;;;;4164948;28;20042;-86
2022/04/27 01:23:45;;;;;;;4.97;4.60;;;6.70;99.90;;;;;;4178872;28;20064;-86
2022/04/27 01:25:54;;;;;;;4.45;4.22;;;6.60;99.90;;;;;;4177403;28;20067;-86
2022/04/27 01:28:23;;;;;;;3.83;3.63;;;6.60;99.90;;;;;;4178414;28;20075;-86
2022/04/27 01:30:25;;;;;;;3.70;3.60;;;6.60;99.90;;;;;;4129303;28;20139;-86
2022/04/27 01:32:27;;;;;;;5.57;5.00;;;6.60;99.90;;;;;;4128547;28;20672;-86
2022/04/27 01:34:30;;;;;;;4.13;3.88;;;6.60;99.90;;;;;;4128857;28;20066;-86
2022/04/27 01:36:32;;;;;;;4.38;4.05;;;6.50;99.90;;;;;;4146182;28;20068;-86
2022/04/27 01:38:44;;;;;;;4.70;4.47;;;6.60;99.90;;;;;;4146387;28;20453;-86
2022/04/27 01:40:51;;;;;;;4.53;3.88;;;6.70;99.90;;;;;;4130120;28;20141;-86
2022/04/27 01:42:55;;;;;;;4.32;4.03;;;6.70;99.90;;;;;;4112516;28;20085;-86
2022/04/27 01:44:58;;;;;;;4.93;4.55;;;6.80;99.90;;;;;;4130319;28;20066;-86
2022/04/27 01:47:01;;;;;;;4.97;4.20;;;6.70;99.90;;;;;;4128581;28;20038;-86
2022/04/27 01:49:03;;;;;;;5.88;4.45;;;6.60;99.90;;;;;;4128228;28;20141;-86
2022/04/27 01:51:07;;;;;;;5.20;4.35;;;6.40;99.90;;;;;;4127484;28;20039;-86
2022/04/27 01:55:30;;;;;;;4.07;3.80;;;6.60;99.90;;;;;;4144580;28;20046;-86
2022/04/27 01:57:34;;;;;;;6.63;3.97;;;6.70;99.90;;;;;;4109138;28;20101;-86
2022/04/27 01:59:37;;;;;;;3.97;3.35;;;6.80;99.90;;;;;;4141711;28;20053;-86
2022/04/27 02:01:40;;;;;;;4.78;4.50;;;6.70;99.90;;;;;;4144316;28;20076;-86
2022/04/27 02:03:42;;;;;;;3.33;3.22;;;6.70;99.90;;;;;;4145745;28;20038;-86
2022/04/27 02:05:46;;;;;;;4.05;3.85;;;6.60;99.90;;;;;;4143148;28;20625;-86
2022/04/27 02:07:48;;;;;;;5.35;4.90;;;6.50;99.90;;;;;;4174900;28;20603;-86
2022/04/27 02:09:50;;;;;;;4.47;4.15;;;6.50;99.90;;;;;;4177531;28;20067;-86
2022/04/27 02:11:53;;;;;;;5.20;4.25;;;6.50;99.90;;;;;;4178101;28;20512;-86
2022/04/27 02:14:00;;;;;;;4.50;4.20;;;6.50;99.90;;;;;;4178020;28;20080;-86
2022/04/27 02:16:04;;;;;;;4.35;4.25;;;6.50;99.90;;;;;;4158923;28;20048;-87
2022/04/27 02:18:08;;;;;;;5.28;5.05;;;6.50;99.90;;;;;;4179231;28;20052;-86
2022/04/27 02:20:11;;;;;;;4.35;4.05;;;6.40;99.90;;;;;;4176690;28;20079;-86
2022/04/27 02:22:13;;;;;;;5.57;4.38;;;6.30;99.90;;;;;;4177662;28;20045;-86
2022/04/27 02:24:16;;;;;;;3.92;3.83;;;6.30;99.90;;;;;;4176494;28;20130;-86
2022/04/27 02:26:19;;;;;;;4.63;4.53;;;6.20;99.90;;;;;;4181744;28;20045;-86
2022/04/27 02:28:22;;;;;;;5.18;4.88;;;6.30;99.90;;;;;;4192268;28;20577;-86
2022/04/27 02:30:26;;;;;;;5.07;4.30;;;6.20;99.90;;;;;;4161353;28;20072;-86
2022/04/27 02:32:28;;;;;;;4.55;4.25;;;6.30;99.90;;;;;;4176543;28;20076;-86
2022/04/27 02:34:31;;;;;;;4.63;4.35;;;6.20;99.90;;;;;;4177719;28;20609;-86
2022/04/27 02:36:34;;;;;;;4.75;4.50;;;6.20;99.90;;;;;;4195406;28;20051;-86
2022/04/27 02:38:36;;;;;;;4.55;4.45;;;6.20;99.90;;;;;;4176739;28;20429;-86
2022/04/27 02:40:38;;;;;;;4.57;3.53;;;6.30;99.90;;;;;;4176118;28;20756;-86
2022/04/27 02:42:41;;;;;;;5.80;4.22;;;6.20;99.90;;;;;;4176053;28;20144;-86
2022/04/27 02:44:44;;;;;;;5.68;5.35;;;6.20;99.90;;;;;;4194864;28;20032;-87
2022/04/27 02:46:46;;;;;;;5.63;5.15;;;6.30;99.90;;;;;;4193808;28;20105;-86
2022/04/27 02:53:35;;;;;;;4.93;4.28;;;6.10;99.90;;;;;;4171885;28;20041;-86
2022/04/27 02:55:37;;;;;;;5.65;5.32;;;5.80;99.90;;;;;;4177554;28;20603;-86
2022/04/27 02:57:41;;;;;;;4.35;4.25;;;5.70;99.90;;;;;;4161069;28;20072;-86
2022/04/27 02:59:44;;;;;;;5.13;4.93;;;5.70;99.90;;;;;;4178613;28;20041;-86
2022/04/27 03:01:48;;;;;;;5.03;4.80;;;5.90;99.90;;;;;;4173966;28;20041;-86
2022/04/27 03:03:50;;;;;;;3.95;3.85;;;5.90;99.90;;;;;;4177346;28;20068;-86
2022/04/27 03:05:54;;;;;;;5.00;4.57;;;5.80;99.90;;;;;;4185145;28;20040;-86
2022/04/27 03:07:56;;;;;;;4.65;4.35;;;5.80;99.90;;;;;;4160343;28;20037;-87
2022/04/27 03:09:59;;;;;;;6.70;5.22;;;5.70;99.90;;;;;;4164549;28;20175;-86
2022/04/27 03:12:01;;;;;;;5.75;5.45;;;5.70;99.90;;;;;;4166109;28;20501;-86
2022/04/27 03:14:04;;;;;;;4.25;4.13;;;5.70;99.90;;;;;;4161068;28;20045;-86
2022/04/27 03:16:07;;;;;;;5.45;5.28;;;5.80;99.90;;;;;;4177038;28;20073;-86
2022/04/27 03:18:22;;;;;;;5.25;5.05;;;5.80;99.90;;;;;;4193407;28;20479;-86
2022/04/27 03:20:25;;;;;;;5.18;4.60;;;5.70;99.90;;;;;;4178662;28;20044;-86
2022/04/27 03:22:28;;;;;;;5.20;5.10;;;5.80;99.90;;;;;;4189954;28;20040;-86
2022/04/27 03:24:30;;;;;;;6.55;5.45;;;5.80;99.90;;;;;;4175444;28;20489;-86
2022/04/27 03:26:34;;;;;;;;;;;5.80;99.90;;;;;;4192402;28;20045;-86
2022/04/27 03:28:38;;;;;;;5.95;5.55;;;5.70;99.90;;;;;;4176758;28;19924;-86
2022/04/27 03:30:40;;;;;;;5.35;4.88;;;5.70;99.90;;;;;;4176909;28;20075;-86
2022/04/27 03:32:42;;;;;;;5.47;5.18;;;5.60;99.90;;;;;;4193597;28;20052;-86
2022/04/27 03:34:46;;;;;;;4.45;4.35;;;5.50;99.90;;;;;;4176878;28;20331;-86
2022/04/27 03:36:48;;;;;;;4.63;4.43;;;5.40;99.90;;;;;;4145262;28;20533;-86
2022/04/27 03:38:50;;;;;;;5.65;5.45;;;5.30;99.90;;;;;;4190835;28;20629;-86
2022/04/27 03:40:55;;;;;;;5.78;5.57;;;5.30;99.90;;;;;;4182941;28;20033;-87
2022/04/27 03:42:57;;;;;;;4.60;4.47;;;5.30;99.90;;;;;;4177855;28;20048;-86
2022/04/27 03:44:59;;;;;;;5.07;4.57;;;5.30;99.90;;;;;;4174890;28;20523;-86
2022/04/27 03:47:01;;;;;;;4.70;4.45;;;5.30;99.90;;;;;;4160354;28;20041;-86
2022/04/27 03:49:03;;;;;;;5.20;5.00;;;5.20;99.90;;;;;;4176308;28;20459;-86
2022/04/27 03:51:07;;;;;;;4.55;4.35;;;5.20;99.90;;;;;;4178170;28;20075;-86
2022/04/27 03:53:09;;;;;;;3.90;3.65;;;5.20;99.90;;;;;;4179975;28;20079;-86
2022/04/27 03:55:13;;;;;;;4.53;4.15;;;5.10;99.90;;;;;;4160265;28;20045;-86
2022/04/27 03:57:16;;;;;;;5.10;5.00;;;5.10;99.90;;;;;;4176771;28;20037;-86
2022/04/27 03:59:18;;;;;;;6.40;6.10;;;5.00;99.90;;;;;;4161499;28;20116;-86
2022/04/27 04:01:21;;;;;;;5.72;5.45;;;5.00;99.90;;;;;;4158938;28;20164;-86
2022/04/27 04:03:25;;;;;;;5.05;4.85;;;5.00;99.90;;;;;;4168528;28;20051;-86
2022/04/27 04:05:29;;;;;;;3.55;3.42;;;5.00;99.90;;;;;;4183804;28;20435;-87
2022/04/27 04:07:34;;;;;;;5.35;5.05;;;5.00;99.90;;;;;;4191695;28;20060;-86
2022/04/27 04:09:36;;;;;;;4.78;4.68;;;4.90;99.90;;;;;;4160032;28;20619;-86
2022/04/27 04:11:38;;;;;;;5.03;4.70;;;5.10;99.90;;;;;;4193511;28;20040;-86
2022/04/27 04:13:41;;;;;;;5.55;5.22;;;5.10;99.90;;;;;;4159681;28;20037;-87
2022/04/27 04:15:44;;;;;;;8.98;6.68;;;5.20;99.90;;;;;;4160296;28;20041;-86
2022/04/27 04:17:46;;;;;;;5.25;5.03;;;5.30;99.90;;;;;;4163683;28;20038;-86
2022/04/27 04:19:48;;;;;;;7.32;6.88;;;5.30;99.90;;;;;;4172775;28;20496;-86
2022/04/27 04:21:50;;;;;;;5.43;5.03;;;5.20;99.90;;;;;;4168259;28;20068;-86
2022/04/27 04:23:53;;;;;;;4.45;4.10;;;5.10;99.90;;;;;;4176378;28;20048;-86
2022/04/27 04:28:32;;;;;;;6.22;4.75;;;5.00;99.90;;;;;;4190977;28;20520;-86
2022/04/27 04:30:35;;;;;;;5.75;5.43;;;5.00;99.90;;;;;;4164851;28;20041;-86
2022/04/27 04:32:38;;;;;;;5.93;5.32;;;5.10;99.90;;;;;;4191146;28;20119;-86
2022/04/27 04:34:42;;;;;;;4.93;4.82;;;5.10;99.90;;;;;;4195284;28;20049;-86
2022/04/27 04:36:45;;;;;;;3.85;3.65;;;5.00;99.90;;;;;;4145507;28;20113;-86
2022/04/27 04:38:47;;;;;;;4.53;4.43;;;5.00;99.90;;;;;;4179983;28;20044;-87
2022/04/27 04:40:50;;;;;;;8.20;5.20;;;5.10;99.90;;;;;;4180456;28;20144;-86
2022/04/27 04:42:53;;;;;;;6.05;5.60;;;5.20;99.90;;;;;;4178101;28;20076;-86
2022/04/27 04:44:55;;;;;;;5.47;5.15;;;5.20;99.90;;;;;;4185404;28;20044;-86
2022/04/27 04:46:58;;;;;;;5.55;5.10;;;5.20;99.90;;;;;;4194549;28;20028;-87
2022/04/27 04:49:01;;;;;;;6.25;5.88;;;5.20;99.90;;;;;;4180223;28;20155;-86
2022/04/27 04:51:04;;;;;;;17.17;8.18;;;5.30;99.90;;;;;;4185878;28;20060;-87
2022/04/27 04:53:06;;;;;;;14.27;8.38;;;5.30;99.90;;;;;;4177773;28;20087;-86
2022/04/27 04:55:09;;;;;;;6.55;6.30;;;5.20;99.90;;;;;;4176446;28;20036;-86
2022/04/27 04:57:11;;;;;;;5.72;5.45;;;5.20;99.90;;;;;;4177445;28;20516;-87
2022/04/27 04:59:14;;;;;;;4.97;4.88;;;5.30;99.90;;;;;;4177937;28;20087;-86
2022/04/27 05:01:16;;;;;;;5.25;5.05;;;5.40;99.90;;;;;;4194020;28;20534;-86
2022/04/27 05:03:20;;;;;;;5.47;5.18;;;5.40;99.90;;;;;;4188157;28;20047;-86
2022/04/27 05:05:22;;;;;;;5.93;4.78;;;5.50;99.90;;;;;;4152170;28;20136;-86
2022/04/27 05:07:24;;;;;;;5.70;5.60;;;5.40;99.90;;;;;;4162610;28;20037;-86
2022/04/27 05:09:26;;;;;;;6.20;5.70;;;5.40;99.90;;;;;;4194760;28;20040;-86
2022/04/27 05:11:29;;;;;;;6.97;6.72;;;5.30;99.90;;;;;;4174335;28;20113;-86
2022/04/27 05:13:34;;;;;;;5.25;5.05;;;5.30;99.90;;;;;;4179117;28;20052;-87
2022/04/27 05:15:36;;;;;;;5.13;4.72;;;5.40;99.90;;;;;;4199934;28;20040;-87
2022/04/27 05:17:40;;;;;;;5.55;5.30;;;5.60;99.90;;;;;;4197404;28;20101;-86
2022/04/27 05:20:09;;;;;;;4.97;4.78;;;5.70;99.90;;;;;;4170716;28;20041;-87
2022/04/27 05:22:12;;;;;;;5.65;5.25;;;5.80;99.90;;;;;;4096792;29;20055;-86
2022/04/27 05:24:15;;;;;;;5.90;5.70;;;5.90;99.90;;;;;;4113089;28;20061;-86
2022/04/27 05:26:18;;;;;;;7.63;7.32;;;6.00;99.90;;;;;;4096484;29;20075;-87
2022/04/27 05:28:22;;;;;;;7.22;6.60;;;5.70;99.90;;;;;;4096932;29;20050;-84
2022/04/27 05:32:47;;;;;;;7.45;7.25;;;5.70;99.90;;;;;;4110702;28;20043;-86
2022/04/27 05:34:49;;;;;;;6.32;6.05;;;5.60;99.90;;;;;;4112235;28;20078;-86
2022/04/27 05:36:51;;;;;;;6.63;6.10;;;5.60;99.90;;;;;;4112401;28;20058;-85
2022/04/27 05:38:54;;;;;;;7.28;6.90;;;5.70;99.90;;;;;;4113607;28;20070;-86
2022/04/27 05:40:58;;;;;;;7.15;6.78;;;5.80;99.90;;;;;;4112424;28;20069;-85
2022/04/27 05:43:00;;;;;;;6.65;5.53;;;6.00;99.90;;;;;;4112667;28;20481;-86
2022/04/27 05:45:04;;;;;;;5.40;5.30;;;6.00;99.90;;;;;;4102049;28;20059;-86
2022/04/27 05:47:06;;;;;;;5.45;5.25;;;6.10;99.90;;;;;;4112388;28;20082;-86
2022/04/27 05:49:08;;;;;;;6.78;6.47;;;6.20;99.90;;;;;;4112442;28;20046;-85
2022/04/27 05:51:10;;;;;;;8.93;8.45;;;6.20;99.90;;;;;;4097134;28;21054;-85
2022/04/27 05:53:12;;;;;;;5.78;5.47;;;6.20;99.90;;;;;;4113075;28;20467;-86
2022/04/27 05:55:14;;;;;;;5.82;5.53;;;6.50;99.90;;;;;;4124311;28;20049;-85
2022/04/27 05:57:19;;;;;;;6.03;5.82;;;6.60;99.90;;;;;;4110779;28;20054;-85
2022/04/27 05:59:21;;;;;;;6.03;5.60;;;6.60;99.90;;;;;;4145676;28;20079;-86
2022/04/27 06:01:23;;;;;;;6.65;6.38;;;6.50;99.90;;;;;;4169152;28;20069;-86
2022/04/27 06:03:26;;;;;;;7.05;6.55;;;6.50;99.90;;;;;;4169930;28;20083;-86
2022/04/27 06:05:29;;;;;;;6.80;6.50;;;6.50;99.90;;;;;;4160891;28;20133;-86
2022/04/27 06:07:31;;;;;;;7.95;7.20;;;6.50;99.90;;;;;;4157180;28;20030;-85
2022/04/27 06:09:33;;;;;;;8.20;7.38;;;6.50;99.90;;;;;;4148841;28;20069;-86
2022/04/27 06:11:35;;;;;;;6.28;5.97;;;6.70;99.90;;;;;;4175725;28;20785;-86
2022/04/27 06:13:37;;;;;;;6.85;6.22;;;6.80;99.90;;;;;;4177985;28;20076;-86
2022/04/27 06:15:39;;;;;;;6.30;5.78;;;6.90;99.90;;;;;;4176307;28;20128;-86
2022/04/27 06:17:42;;;;;;;6.45;6.00;;;7.00;99.90;;;;;;4173018;28;20096;-86
2022/04/27 06:19:44;;;;;;;6.75;6.43;;;7.10;99.90;;;;;;4156652;28;20569;-86
2022/04/27 06:21:46;;;;;;;6.07;5.85;;;7.20;99.90;;;;;;4177691;28;20600;-85
2022/04/27 06:23:48;;;;;;;6.15;5.68;;;7.40;99.90;;;;;;4171364;28;20033;-86
2022/04/27 06:25:50;;;;;;;5.57;5.18;;;7.70;99.90;;;;;;4166391;28;20144;-86
2022/04/27 06:27:52;;;;;;;7.32;6.80;;;7.90;99.90;;;;;;4146377;28;20038;-86
2022/04/27 06:29:55;;;;;;;6.50;5.97;;;8.30;99.90;;;;;;4178708;28;20111;-86
2022/04/27 06:31:58;;;;;;;4.30;4.00;;;8.40;99.90;;;;;;4146887;28;20074;-86
2022/04/27 06:34:01;;;;;;;3.63;3.53;;;8.40;99.90;;;;;;4159582;28;20076;-86
2022/04/27 06:36:03;;;;;;;4.45;2.35;;;8.90;99.90;;;;;;4161111;28;20042;-86
2022/04/27 06:38:07;;;;;;;4.43;4.22;;;9.00;99.90;;;;;;4178555;28;20533;-86
2022/04/27 06:40:29;;;;;;;3.50;3.20;;;9.10;99.90;;;;;;4178337;28;20432;-86
2022/04/27 06:42:31;;;;;;;3.15;3.05;;;9.20;99.90;;;;;;4186424;28;20472;-86
2022/04/27 06:44:34;;;;;;;4.28;3.45;;;9.20;99.90;;;;;;4192251;28;20496;-86
2022/04/27 06:46:37;;;;;;;4.13;3.92;;;9.20;99.90;;;;;;4175473;28;20555;-86
2022/04/27 06:48:41;;;;;;;6.47;4.25;;;9.30;99.90;;;;;;4182361;28;20040;-86
2022/04/27 06:50:43;;;;;;;5.22;4.72;;;9.50;99.90;;;;;;4193551;28;20068;-85
2022/04/27 06:52:48;;;;;;;3.88;3.75;;;9.80;99.90;;;;;;4177207;28;20579;-86
2022/04/27 06:54:50;;;;;;;3.67;3.58;;;9.90;99.90;;;;;;4159373;28;20459;-86
2022/04/27 06:56:52;;;;;;;2.83;2.72;;;10.10;99.90;;;;;;4159070;28;20936;-86
2022/04/27 06:58:54;;;;;;;3.20;2.70;;;10.10;99.90;;;;;;4177195;28;20136;-86
2022/04/27 07:00:57;;;;;;;3.35;3.30;;;10.10;99.90;;;;;;4194744;28;20089;-86
2022/04/27 07:02:59;;;;;;;2.88;2.67;;;10.20;99.90;;;;;;4176916;28;20053;-86
2022/04/27 07:05:03;;;;;;;2.45;2.10;;;10.30;99.90;;;;;;4184063;28;20041;-86
2022/04/27 07:07:05;;;;;;;1.55;1.55;;;10.70;99.90;;;;;;4180542;28;20029;-87
2022/04/27 07:09:11;;;;;;;3.22;1.60;;;10.90;99.90;;;;;;4177020;28;20067;-86
2022/04/27 07:11:13;;;;;;;2.58;1.60;;;10.90;99.90;;;;;;4183011;28;20385;-86
2022/04/27 07:13:16;;;;;;;1.20;1.20;;;10.80;99.90;;;;;;4176419;28;20037;-87
2022/04/27 07:15:25;;;;;;;2.35;2.20;;;10.80;99.90;;;;;;4174907;28;20045;-87
2022/04/27 07:17:30;;;;;;;1.77;1.20;;;11.00;99.90;;;;;;4164706;28;20071;-87
2022/04/27 07:19:32;;;;;;;2.47;2.38;;;11.20;99.90;;;;;;4174036;28;20041;-87
2022/04/27 07:21:35;;;;;;;;;;;11.40;99.90;;;;;;4177125;28;20139;-86
2022/04/27 07:23:38;;;;;;;3.13;1.55;;;11.80;99.90;;;;;;4191098;28;20010;-86
2022/04/27 07:25:41;;;;;;;3.38;1.35;;;12.20;99.90;;;;;;4193519;28;20032;-86
2022/04/27 07:27:45;;;;;;;2.10;1.77;;;12.30;99.90;;;;;;4176404;28;20068;-86
2022/04/27 07:29:47;;;;;;;2.92;1.95;;;12.30;99.90;;;;;;4191841;28;20439;-86
2022/04/27 07:31:50;;;;;;;6.68;3.13;;;12.50;99.90;;;;;;4193381;28;20068;-86
2022/04/27 07:33:53;;;;;;;2.00;1.40;;;12.70;99.90;;;;;;4192925;28;20044;-87
2022/04/27 07:35:55;;;;;;;1.17;1.17;;;12.60;99.90;;;;;;4194371;28;20131;-86
2022/04/27 07:37:58;;;;;;;1.65;1.23;;;12.90;99.90;;;;;;4176444;28;20090;-86
2022/04/27 07:40:01;;;;;;;2.88;1.23;;;12.90;99.90;;;;;;4175181;28;20068;-87
2022/04/27 07:42:03;;;;;;;;;;;13.00;99.90;;;;;;4194325;28;20075;-86
2022/04/27 07:44:06;;;;;;;1.83;1.52;;;13.00;99.90;;;;;;4156648;28;19987;-86
2022/04/27 07:46:09;;;;;;;1.63;1.52;;;13.30;99.90;;;;;;4190575;28;20045;-87
2022/04/27 07:48:12;;;;;;;3.47;1.42;;;13.40;99.90;;;;;;4161344;28;20049;-86
2022/04/27 07:50:16;;;;;;;1.85;1.25;;;13.50;99.90;;;;;;4189623;28;20036;-86
2022/04/27 07:52:19;;;;;;;3.67;1.83;;;13.60;99.90;;;;;;4159813;28;20136;-86
2022/04/27 07:54:22;;;;;;;1.90;1.65;;;13.70;99.90;;;;;;4194152;28;20086;-87
2022/04/27 07:56:24;;;;;;;2.85;2.00;;;14.00;99.90;;;;;;4192978;28;20474;-86
2022/04/27 07:58:26;;;;;;;1.60;1.50;;;14.80;99.90;;;;;;4174858;28;20095;-86
2022/04/27 08:00:29;;;;;;;1.83;1.73;;;15.20;99.90;;;;;;4153247;28;20128;-86
2022/04/27 08:02:31;;;;;;;1.92;1.40;;;15.20;99.90;;;;;;4178663;28;20456;-87
2022/04/27 08:04:34;;;;;;;4.35;1.40;;;15.40;99.90;;;;;;4147373;28;20622;-86
2022/04/27 08:06:37;;;;;;;1.20;1.20;;;15.20;99.90;;;;;;4192347;28;20032;-86
2022/04/27 08:08:40;;;;;;;1.33;1.00;;;15.30;99.90;;;;;;4193881;28;20040;-86
2022/04/27 08:10:42;;;;;;;1.33;1.10;;;15.70;99.90;;;;;;4191467;28;20047;-87
2022/04/27 08:12:49;;;;;;;0.90;0.90;;;15.70;99.90;;;;;;4176048;28;20110;-86
2022/04/27 08:14:53;;;;;;;1.67;1.58;;;15.60;99.90;;;;;;4192649;28;20491;-86
2022/04/27 08:16:58;;;;;;;2.55;1.00;;;15.90;99.90;;;;;;4176043;28;20040;-86
2022/04/27 08:19:02;;;;;;;1.10;1.02;;;15.80;99.90;;;;;;4178614;28;20037;-86
2022/04/27 08:21:18;;;;;;;1.13;1.10;;;16.10;99.90;;;;;;4159445;28;20556;-86
2022/04/27 08:23:23;;;;;;;1.00;1.00;;;16.00;99.90;;;;;;4188314;28;20366;-86
2022/04/27 08:25:25;;;;;;;1.95;1.50;;;16.50;99.90;;;;;;4164491;28;20156;-86
2022/04/27 08:27:29;;;;;;;0.95;0.93;;;16.60;99.90;;;;;;4193458;28;20032;-86
2022/04/27 08:29:32;;;;;;;1.13;1.13;;;16.80;99.90;;;;;;4193760;28;20076;-86
2022/04/27 08:31:34;;;;;;;0.90;0.90;;;16.90;99.90;;;;;;4188279;28;20124;-86
2022/04/27 08:33:36;;;;;;;2.58;0.90;;;16.70;99.90;;;;;;4193740;28;20032;-86
2022/04/27 08:35:39;;;;;;;0.90;0.90;;;16.90;99.90;;;;;;4177641;28;20049;-86
2022/04/27 08:37:41;;;;;;;1.90;0.90;;;16.70;99.90;;;;;;4177705;28;20048;-86
2022/04/27 08:39:44;;;;;;;1.10;1.00;;;16.80;99.90;;;;;;4195756;28;20090;-86
2022/04/27 08:41:46;;;;;;;1.27;1.00;;;17.00;99.90;;;;;;4185170;28;20079;-86
2022/04/27 08:43:49;;;;;;;0.88;0.88;;;17.40;99.90;;;;;;4146342;28;20050;-86
2022/04/27 08:45:51;;;;;;;1.33;0.90;;;17.50;99.90;;;;;;4178945;28;20041;-86
2022/04/27 08:47:54;;;;;;;1.48;0.90;;;17.70;99.90;;;;;;4180330;28;20106;-86
2022/04/27 08:49:56;;;;;;;1.70;0.90;;;17.70;99.90;;;;;;4146160;28;20045;-86
2022/04/27 08:52:00;;;;;;;3.15;0.85;;;18.00;99.90;;;;;;4162592;28;20127;-86
2022/04/27 08:54:03;;;;;;;0.90;0.90;;;18.10;99.90;;;;;;4162333;28;20124;-86
2022/04/27 08:56:05;;;;;;;1.02;0.90;;;18.30;99.90;;;;;;4162743;28;20065;-86
2022/04/27 08:58:12;;;;;;;2.38;0.90;;;18.20;99.90;;;;;;4179982;28;20037;-86
2022/04/27 09:00:35;;;;;;;0.95;0.90;;;18.80;99.90;;;;;;4178595;28;20039;-86
2022/04/27 09:02:37;;;;;;;0.95;0.80;;;19.00;99.90;;;;;;4180089;28;20033;-86
2022/04/27 09:04:40;;;;;;;;;;;19.30;99.80;;;;;;4162859;28;20060;-86
2022/04/27 09:06:44;;;;;;;0.77;0.77;;;19.20;97.80;;;;;;4177147;28;19931;-86
2022/04/27 09:08:52;;;;;;;0.80;0.80;;;19.20;99.90;;;;;;4178728;28;20064;-86
2022/04/27 09:11:19;;;;;;;2.15;0.85;;;19.40;98.60;;;;;;4180035;28;20029;-86
2022/04/27 09:13:30;;;;;;;0.70;0.70;;;19.80;99.90;;;;;;4190844;28;20480;-86
2022/04/27 09:15:36;;;;;;;1.15;0.80;;;20.10;98.40;;;;;;4162175;28;20069;-86
2022/04/27 09:22:45;;;;;;;0.77;0.77;;;20.90;97.20;;;;;;4174175;28;20751;-86
2022/04/27 09:24:55;;;;;;;2.50;0.80;;;20.90;96.80;;;;;;4162198;28;20092;-86
2022/04/27 09:27:22;;;;;;;0.70;0.70;;;20.90;98.20;;;;;;4162118;28;20421;-86
2022/04/27 09:29:25;;;;;;;0.95;0.70;;;20.80;96.30;;;;;;4161908;28;20065;-86
2022/04/27 09:31:32;;;;;;;0.70;0.70;;;20.80;95.70;;;;;;4177839;28;20059;-86
2022/04/27 09:33:36;;;;;;;1.05;0.70;;;20.60;93.90;;;;;;4161627;28;20034;-86
2022/04/27 09:35:40;;;;;;;0.70;0.70;;;20.60;95.00;;;;;;4178483;28;20045;-86
2022/04/27 09:37:42;;;;;;;2.35;0.65;;;20.70;95.40;;;;;;4165675;28;20041;-86
2022/04/27 09:40:11;;;;;;;0.60;0.60;;;20.80;92.00;;;;;;4179804;28;20055;-86
2022/04/27 09:42:14;;;;;;;3.83;0.70;;;20.70;91.40;;;;;;4161698;28;20532;-86
2022/04/27 09:44:36;;;;;;;0.60;0.60;;;20.60;92.20;;;;;;4179269;28;20071;-86
2022/04/27 09:46:40;;;;;;;0.90;0.70;;;20.80;92.40;;;;;;4159298;28;20535;-86
2022/04/27 09:48:46;;;;;;;1.02;1.02;;;20.90;92.00;;;;;;4162241;28;20124;-86
2022/04/27 09:50:58;;;;;;;0.70;0.70;;;20.70;91.70;;;;;;4180428;28;20049;-86
2022/04/27 09:53:06;;;;;;;1.55;0.85;;;21.00;92.20;;;;;;4179855;28;20443;-86
2022/04/27 09:55:08;;;;;;;0.60;0.60;;;21.30;92.80;;;;;;4161611;28;20038;-86
2022/04/27 09:57:15;;;;;;;0.60;0.60;;;21.80;96.00;;;;;;4162505;28;20040;-86
2022/04/27 09:59:20;;;;;;;1.40;0.60;;;22.20;92.20;;;;;;4152235;28;20558;-86
2022/04/27 10:01:24;;;;;;;0.60;0.60;;;21.90;91.00;;;;;;4180390;28;20039;-86
2022/04/27 10:03:27;;;;;;;1.50;0.70;;;22.00;92.10;;;;;;4162904;28;20131;-86
2022/04/27 10:05:29;;;;;;;0.60;0.60;;;22.20;92.20;;;;;;4167936;28;20150;-86
2022/04/27 10:07:32;;;;;;;1.10;0.98;;;21.80;90.20;;;;;;4155257;28;20065;-86
2022/04/27 10:09:34;;;;;;;0.60;0.60;;;21.80;90.90;;;;;;4179028;28;20036;-86
2022/04/27 10:11:45;;;;;;;0.80;0.63;;;21.60;90.10;;;;;;4177984;28;20051;-86
2022/04/27 10:13:48;;;;;;;0.60;0.60;;;20.90;90.50;;;;;;4160480;28;20714;-86
2022/04/27 10:15:50;;;;;;;0.75;0.75;;;21.20;91.10;;;;;;4177910;28;20443;-86
2022/04/27 10:17:54;;;;;;;1.90;0.70;;;21.20;90.40;;;;;;4159735;28;20065;-86
2022/04/27 10:19:56;;;;;;;2.22;0.70;;;21.10;90.70;;;;;;4154237;28;20116;-86
2022/04/27 10:21:59;;;;;;;0.70;0.70;;;21.20;88.00;;;;;;4160012;28;20049;-86
2022/04/27 10:24:01;;;;;;;1.50;0.70;;;21.20;89.00;;;;;;4162663;28;20060;-86
2022/04/27 10:26:11;;;;;;;0.70;0.70;;;21.40;90.70;;;;;;4160750;28;20044;-86
2022/04/27 10:28:20;;;;;;;0.60;0.60;;;21.60;90.90;;;;;;4177483;28;20086;-86
2022/04/27 10:30:42;;;;;;;0.65;0.65;;;21.60;90.50;;;;;;4160592;28;20065;-86
2022/04/27 10:32:44;;;;;;;0.60;0.60;;;21.60;90.60;;;;;;4178244;28;20404;-86
2022/04/27 10:35:12;;;;;;;0.60;0.60;;;21.50;89.90;;;;;;4162427;28;20037;-86
2022/04/27 10:37:57;;;;;;;1.02;0.70;;;21.40;90.20;;;;;;4136989;28;20057;-86
2022/04/27 10:40:40;;;;;;;0.60;0.60;;;21.70;90.90;;;;;;4156641;28;20052;-86
2022/04/27 10:42:42;;;;;;;0.60;0.60;;;21.70;90.80;;;;;;4160613;28;20148;-86
2022/04/27 10:44:50;;;;;;;0.60;0.60;;;21.70;92.50;;;;;;4174501;28;20497;-86
2022/04/27 10:46:52;;;;;;;1.73;0.60;;;22.00;91.50;;;;;;4178557;28;20397;-86
2022/04/27 10:48:55;;;;;;;0.50;0.50;;;22.00;90.80;;;;;;4144449;28;20034;-87
2022/04/27 10:51:03;;;;;;;0.60;0.60;;;21.70;88.70;;;;;;4179332;28;20664;-87
2022/04/27 10:53:25;;;;;;;0.70;0.60;;;21.70;90.30;;;;;;4157798;28;20048;-88
2022/04/27 10:55:34;;;;;;;0.60;0.60;;;22.30;92.00;;;;;;4177003;28;20047;-88
2022/04/27 10:57:39;;;;;;;0.50;0.50;;;22.20;89.60;;;;;;4163102;28;20630;-87
2022/04/27 10:59:56;;;;;;;1.40;0.60;;;22.50;91.70;;;;;;4142879;28;20041;-87
2022/04/27 11:01:58;;;;;;;0.90;0.88;;;22.50;91.20;;;;;;4173826;28;20619;-87
2022/04/27 11:04:05;;;;;;;;;;;22.30;84.60;;;;;;4160194;28;20080;-87
2022/04/27 11:06:12;;;;;;;0.50;0.50;;;22.30;87.90;;;;;;4175654;28;19924;-87
2022/04/27 11:08:45;;;;;;;1.10;0.60;;;22.70;91.10;;;;;;4174240;28;20044;-87
2022/04/27 11:10:48;;;;;;;0.57;0.57;;;23.30;89.30;;;;;;4160547;28;20041;-88
2022/04/27 11:12:57;;;;;;;0.60;0.60;;;23.20;87.00;;;;;;4146903;28;20136;-87